Terminal Aerodrome Forecast
Issued by NWS Mt. Holly, NJ

Home | Current Version | Previous Version | Text Only | Print | Product List | Glossary On
Versions: 1 2 3 4 5 6 7 8 9 10 11 12 13 14 15 16 17 18 19 20 21 22 23 24 25 26 27 28 29 30 31 32 33 34
000
FTAK31 PANC 290540
TAFABE
TAF
PABE 290540Z 2906/3006 20008KT P6SM SCT025 OVC040
     FM291200 14004KT P6SM VCFG SCT005 BKN012
     FM291400 14005KT 1SM BR BKN005 OVC008
     FM291900 16009KT P6SM BKN012 OVC025
     FM292200 16015KT P6SM BKN035
     FM300400 15008KT P6SM SCT025 BKN035=

USA.gov is the U.S. government's official web portal to all federal, state and local government web resources and services.